Terminal Aerodrome Forecast
Issued by NWS Missoula, MT

Home | Current Version | Previous Version | Text Only | Print | Product List | Glossary On
Versions: 1 2 3 4 5 6 7 8 9 10 11 12 13 14 15 16 17 18
206
FTUS45 KMSO 192323
TAFGPI
TAF
KGPI 192323Z 2000/2024 19007KT P6SM SKC
     FM200600 16011G18KT P6SM VCSH OVC070
     FM201000 19009KT 5SM -SN BR OVC030
     FM201800 10009KT 4SM -SN BR OVC020
     FM202100 08009KT 2SM -SNRA BR OVC015=

USA.gov is the U.S. government's official web portal to all federal, state and local government web resources and services.